createdAt,value
2022-07-31T00:00:53.909Z,100266.81
2022-07-31T00:03:22.420Z,100265.16
2022-07-31T00:05:50.891Z,100268.97
2022-07-31T00:08:19.362Z,100260.44
2022-07-31T00:10:47.863Z,100253.53
2022-07-31T00:13:16.333Z,100260.31
2022-07-31T00:15:44.817Z,100260.31
2022-07-31T00:18:14.851Z,100260.59
2022-07-31T00:20:44.492Z,100254.50
2022-07-31T00:23:13.259Z,100252.53
2022-07-31T00:25:47.644Z,100259.31
2022-07-31T00:28:16.123Z,100252.66
2022-07-31T00:30:44.560Z,100256.97
2022-07-31T00:33:16.097Z,100251.41
2022-07-31T00:35:44.759Z,100254.97
2022-07-31T00:38:28.596Z,100252.97
2022-07-31T00:40:58.413Z,100248.34
2022-07-31T00:43:27.506Z,100246.91
2022-07-31T00:45:59.539Z,100249.03
2022-07-31T00:48:29.696Z,100250.59
2022-07-31T00:50:58.236Z,100258.22
2022-07-31T00:53:26.957Z,100249.44
2022-07-31T00:55:57.472Z,100245.06
2022-07-31T00:58:26.316Z,100240.88
2022-07-31T01:00:55.008Z,100246.00
2022-07-31T01:03:23.618Z,100255.78
2022-07-31T01:05:53.511Z,100246.38
2022-07-31T01:08:22.066Z,100250.16
2022-07-31T01:10:57.392Z,100250.16
2022-07-31T01:13:34.293Z,100250.16
2022-07-31T01:16:04.769Z,100256.69
2022-07-31T01:18:36.369Z,100250.66
2022-07-31T01:21:10.385Z,100250.66
2022-07-31T01:24:01.541Z,100256.13
2022-07-31T01:26:55.109Z,100257.44
2022-07-31T01:29:28.438Z,100249.22
2022-07-31T01:32:04.082Z,100252.19
2022-07-31T01:34:38.310Z,100252.19
2022-07-31T01:37:15.317Z,100255.16
2022-07-31T01:39:48.145Z,100251.84
2022-07-31T01:42:20.060Z,100247.09
2022-07-31T01:45:01.584Z,100247.94
2022-07-31T01:47:35.891Z,100250.09
2022-07-31T01:50:05.963Z,100250.09
2022-07-31T01:52:35.712Z,100254.47
2022-07-31T01:55:05.895Z,100248.06
2022-07-31T01:57:37.550Z,100253.16
2022-07-31T02:00:14.884Z,100248.56
2022-07-31T02:03:01.624Z,100248.31
2022-07-31T02:05:41.876Z,100250.22
2022-07-31T02:08:12.444Z,100248.78
2022-07-31T02:10:46.351Z,100254.03
2022-07-31T02:13:17.943Z,100248.78
2022-07-31T02:15:49.796Z,100252.00
2022-07-31T02:18:23.477Z,100253.66
2022-07-31T02:21:10.647Z,100253.06
2022-07-31T02:23:39.350Z,100257.44
2022-07-31T02:26:08.986Z,100249.25
2022-07-31T02:28:39.463Z,100252.34
2022-07-31T02:31:13.189Z,100251.28
2022-07-31T02:33:47.217Z,100251.88
2022-07-31T02:36:19.215Z,100250.78
2022-07-31T02:38:48.769Z,100248.91
2022-07-31T02:41:18.673Z,100252.22
2022-07-31T02:43:48.799Z,100250.56
2022-07-31T02:46:23.620Z,100253.03
2022-07-31T02:48:54.154Z,100256.38
2022-07-31T02:51:25.184Z,100248.19
2022-07-31T02:53:55.906Z,100251.75
2022-07-31T02:56:29.375Z,100254.72
2022-07-31T02:58:57.908Z,100250.91
2022-07-31T03:01:30.029Z,100251.47
2022-07-31T03:03:58.539Z,100255.16
2022-07-31T03:06:29.667Z,100252.78
2022-07-31T03:08:58.562Z,100250.31
2022-07-31T03:11:27.274Z,100250.31
2022-07-31T03:13:59.236Z,100252.31
2022-07-31T03:16:31.189Z,100250.16
2022-07-31T03:19:03.329Z,100250.53
2022-07-31T03:21:32.548Z,100249.00
2022-07-31T03:24:02.034Z,100255.03
2022-07-31T03:26:32.157Z,100255.63
2022-07-31T03:29:02.746Z,100252.66
2022-07-31T03:31:33.064Z,100252.16
2022-07-31T03:34:01.627Z,100258.22
2022-07-31T03:36:32.216Z,100257.50
2022-07-31T03:39:00.709Z,100263.53
2022-07-31T03:41:38.207Z,100258.44
2022-07-31T03:44:07.276Z,100264.00
2022-07-31T03:46:37.363Z,100263.53
2022-07-31T03:49:06.849Z,100265.75
2022-07-31T03:51:36.047Z,100268.84
2022-07-31T03:54:05.133Z,100262.91
2022-07-31T03:56:59.127Z,100269.19
2022-07-31T03:59:29.853Z,100267.84
2022-07-31T04:02:10.531Z,100273.44
2022-07-31T04:04:49.328Z,100269.94
2022-07-31T04:07:18.086Z,100266.47
2022-07-31T04:09:46.631Z,100273.13
2022-07-31T04:12:16.695Z,100275.13
2022-07-31T04:14:45.593Z,100277.38
2022-07-31T04:17:15.550Z,100264.03
2022-07-31T04:19:44.135Z,100269.84
2022-07-31T04:22:12.703Z,100263.03
2022-07-31T04:24:41.294Z,100271.84
2022-07-31T04:27:48.237Z,100274.31
2022-07-31T04:30:18.123Z,100276.03
2022-07-31T04:32:50.068Z,100271.84
2022-07-31T04:35:23.396Z,100272.66
2022-07-31T04:37:51.933Z,100265.91
2022-07-31T04:40:23.139Z,100274.44
2022-07-31T04:42:51.642Z,100267.41
2022-07-31T04:45:20.137Z,100265.81
2022-07-31T04:47:50.236Z,100261.50
2022-07-31T04:50:18.956Z,100262.44
2022-07-31T04:52:57.281Z,100257.53
2022-07-31T04:55:27.496Z,100258.94
2022-07-31T04:57:55.980Z,100255.44
2022-07-31T05:00:25.023Z,100253.91
2022-07-31T05:02:54.992Z,100255.06
2022-07-31T05:05:24.886Z,100252.66
2022-07-31T05:07:53.340Z,100263.44
2022-07-31T05:10:44.155Z,100252.31
2022-07-31T05:13:12.772Z,100249.91
2022-07-31T05:15:44.790Z,100244.47
2022-07-31T05:18:14.737Z,100250.59
2022-07-31T05:21:19.511Z,100248.50
2022-07-31T05:24:02.081Z,100238.50
2022-07-31T05:26:47.298Z,100235.53
2022-07-31T05:29:15.876Z,100241.94
2022-07-31T05:31:59.596Z,100232.44
2022-07-31T05:34:31.986Z,100235.81
2022-07-31T05:37:02.325Z,100240.53
2022-07-31T05:39:33.345Z,100233.78
2022-07-31T05:42:20.223Z,100225.09
2022-07-31T05:45:01.188Z,100225.97
2022-07-31T05:47:40.055Z,100226.59
2022-07-31T05:50:11.272Z,100223.94
2022-07-31T05:52:40.044Z,100218.47
2022-07-31T05:55:27.029Z,100220.19
2022-07-31T05:58:35.144Z,100219.75
2022-07-31T06:01:05.077Z,100214.06
2022-07-31T06:03:38.604Z,100221.25
2022-07-31T06:06:28.748Z,100226.53
2022-07-31T06:09:03.421Z,100231.53
2022-07-31T06:11:36.984Z,100220.63
2022-07-31T06:14:05.593Z,100230.53
2022-07-31T06:16:53.281Z,100223.50
2022-07-31T06:19:24.582Z,100217.50
2022-07-31T06:21:55.918Z,100217.28
2022-07-31T06:24:26.008Z,100213.19
2022-07-31T06:26:58.368Z,100214.81
2022-07-31T06:29:41.255Z,100215.13
2022-07-31T06:32:11.210Z,100224.47
2022-07-31T06:34:40.243Z,100221.16
2022-07-31T06:37:10.389Z,100223.34
2022-07-31T06:39:55.277Z,100221.97
2022-07-31T06:42:48.886Z,100227.47
2022-07-31T06:45:51.193Z,100228.84
2022-07-31T06:48:50.341Z,100214.81
2022-07-31T06:51:31.613Z,100216.69
2022-07-31T06:54:03.020Z,100216.97
2022-07-31T06:56:32.256Z,100215.56
2022-07-31T06:59:01.186Z,100217.19
2022-07-31T07:01:30.098Z,100221.25
2022-07-31T07:03:59.538Z,100224.28
2022-07-31T07:06:28.231Z,100224.81
2022-07-31T07:08:57.685Z,100219.03
2022-07-31T07:11:28.725Z,100213.03
2022-07-31T07:13:57.204Z,100212.22
2022-07-31T07:16:25.756Z,100216.69
2022-07-31T07:18:54.293Z,100214.53
2022-07-31T07:21:25.072Z,100206.31
2022-07-31T07:23:55.092Z,100206.69
2022-07-31T07:29:16.313Z,100208.19
2022-07-31T07:31:44.927Z,100203.03
2022-07-31T07:34:14.095Z,100202.25
2022-07-31T07:36:43.151Z,100199.81
2022-07-31T07:39:22.944Z,100196.28
2022-07-31T07:41:54.229Z,100192.19
2022-07-31T07:44:22.752Z,100192.22
2022-07-31T07:46:51.263Z,100182.91
2022-07-31T07:49:21.917Z,100192.84
2022-07-31T07:52:10.155Z,100193.69
2022-07-31T07:54:43.370Z,100195.38
2022-07-31T07:57:33.991Z,100192.06
2022-07-31T08:00:21.199Z,100186.84
2022-07-31T08:03:02.924Z,100186.28
2022-07-31T08:05:46.155Z,100185.47
2022-07-31T08:08:15.283Z,100187.94
2022-07-31T08:10:49.637Z,100183.81
2022-07-31T08:13:38.825Z,100190.69
2022-07-31T08:16:12.216Z,100186.56
2022-07-31T08:18:46.318Z,100187.13
2022-07-31T08:21:14.880Z,100192.34
2022-07-31T08:23:43.504Z,100189.31
2022-07-31T08:26:13.188Z,100189.63
2022-07-31T08:28:50.651Z,100186.31
2022-07-31T08:31:23.561Z,100183.03
2022-07-31T08:34:13.155Z,100186.31
2022-07-31T08:37:57.591Z,100188.81
2022-07-31T08:39:51.930Z,100183.56
2022-07-31T08:42:20.469Z,100179.16
2022-07-31T08:44:50.405Z,100172.78
2022-07-31T08:47:27.051Z,100171.38
2022-07-31T08:49:58.302Z,100172.78
2022-07-31T08:52:28.679Z,100173.56
2022-07-31T08:55:09.404Z,100170.53
2022-07-31T08:57:39.883Z,100173.31
2022-07-31T09:00:13.142Z,100166.13
2022-07-31T09:02:42.208Z,100165.31
2022-07-31T09:05:42.190Z,100163.94
2022-07-31T09:08:15.009Z,100166.94
2022-07-31T09:10:49.874Z,100165.56
2022-07-31T09:13:20.368Z,100169.09
2022-07-31T09:15:58.436Z,100157.97
2022-07-31T09:18:27.005Z,100158.94
2022-07-31T09:24:07.919Z,100158.03
2022-07-31T09:26:37.485Z,100149.31
2022-07-31T09:29:08.706Z,100151.44
2022-07-31T09:31:39.428Z,100150.13
2022-07-31T09:34:39.830Z,100149.41
2022-07-31T09:37:15.328Z,100138.59
2022-07-31T09:40:02.536Z,100145.50
2022-07-31T09:42:55.613Z,100139.94
2022-07-31T09:45:30.563Z,100134.97
2022-07-31T09:48:15.159Z,100138.66
2022-07-31T09:50:55.744Z,100140.91
2022-07-31T09:53:25.570Z,100144.13
2022-07-31T09:56:04.461Z,100148.31
2022-07-31T09:58:32.944Z,100140.81
2022-07-31T10:01:05.302Z,100148.63
2022-07-31T10:03:38.005Z,100155.22
2022-07-31T10:06:08.017Z,100146.16
2022-07-31T10:08:38.252Z,100147.16
2022-07-31T10:11:43.287Z,100156.38
2022-07-31T10:14:23.741Z,100157.09
2022-07-31T10:16:56.345Z,100148.84
2022-07-31T10:19:46.828Z,100148.25
2022-07-31T10:22:45.143Z,100151.38
2022-07-31T10:25:21.792Z,100146.44
2022-07-31T10:27:51.478Z,100142.75
2022-07-31T10:30:22.739Z,100141.22
2022-07-31T10:32:56.075Z,100140.38
2022-07-31T10:35:29.645Z,100146.06
2022-07-31T10:38:24.181Z,100154.00
2022-07-31T10:41:11.266Z,100148.53
2022-07-31T10:43:47.188Z,100153.28
2022-07-31T10:46:30.512Z,100152.19
2022-07-31T10:49:40.572Z,100143.06
2022-07-31T10:52:35.752Z,100136.81
2022-07-31T10:55:18.008Z,100133.22
2022-07-31T10:58:12.164Z,100131.53
2022-07-31T11:01:07.949Z,100137.59
2022-07-31T11:03:41.005Z,100134.59
2022-07-31T11:06:40.488Z,100123.56
2022-07-31T11:09:30.823Z,100130.97
2022-07-31T11:12:19.672Z,100129.00
2022-07-31T11:14:58.348Z,100110.75
2022-07-31T11:18:17.444Z,100114.56
2022-07-31T11:20:47.030Z,100112.09
2022-07-31T11:23:16.929Z,100120.91
2022-07-31T11:25:47.780Z,100122.84
2022-07-31T11:28:19.070Z,100115.94
2022-07-31T11:30:52.353Z,100112.34
2022-07-31T11:33:41.603Z,100112.34
2022-07-31T11:36:13.948Z,100111.53
2022-07-31T11:38:44.760Z,100117.88
2022-07-31T11:41:17.413Z,100111.22
2022-07-31T11:43:52.671Z,100111.22
2022-07-31T11:46:26.428Z,100107.88
2022-07-31T11:48:55.836Z,100108.97
2022-07-31T11:51:25.148Z,100107.34
2022-07-31T11:53:56.763Z,100112.88
2022-07-31T11:56:29.577Z,100106.81
2022-07-31T11:58:59.248Z,100110.69
2022-07-31T12:01:29.779Z,100115.09
2022-07-31T12:04:07.572Z,100110.69
2022-07-31T12:06:39.433Z,100110.16
2022-07-31T12:09:08.139Z,100108.22
2022-07-31T12:11:58.657Z,100105.78
2022-07-31T12:14:34.294Z,100109.31
2022-07-31T12:17:05.204Z,100099.94
2022-07-31T12:19:37.418Z,100102.13
2022-07-31T12:22:14.705Z,100097.69
2022-07-31T12:24:43.455Z,100098.25
2022-07-31T12:27:18.539Z,100092.06
2022-07-31T12:29:47.143Z,100096.84
2022-07-31T12:32:25.968Z,100092.84
2022-07-31T12:35:04.048Z,100095.84
2022-07-31T12:37:32.801Z,100092.31
2022-07-31T12:40:01.761Z,100086.50
2022-07-31T12:42:41.221Z,100093.13
2022-07-31T12:45:19.763Z,100095.38
2022-07-31T12:47:51.771Z,100088.72
2022-07-31T12:50:20.997Z,100093.47
2022-07-31T12:52:49.919Z,100084.94
2022-07-31T12:55:18.695Z,100080.31
2022-07-31T12:57:50.903Z,100091.66
2022-07-31T13:00:23.126Z,100083.72
2022-07-31T13:02:52.315Z,100089.28
2022-07-31T13:05:21.230Z,100085.75
2022-07-31T13:07:50.412Z,100076.38
2022-07-31T13:10:23.762Z,100075.78
2022-07-31T13:12:55.029Z,100073.28
2022-07-31T13:15:30.122Z,100068.00
2022-07-31T13:17:59.642Z,100072.38
2022-07-31T13:20:28.096Z,100070.78
2022-07-31T13:22:58.473Z,100074.66
2022-07-31T13:25:27.197Z,100072.47
2022-07-31T13:27:57.179Z,100069.97
2022-07-31T13:30:25.774Z,100060.28
2022-07-31T13:32:54.190Z,100061.63
2022-07-31T13:35:28.365Z,100067.13
2022-07-31T13:37:57.793Z,100066.88
2022-07-31T13:40:40.529Z,100066.03
2022-07-31T13:43:10.388Z,100060.22
2022-07-31T13:45:38.968Z,100063.78
2022-07-31T13:48:10.214Z,100059.09
2022-07-31T13:50:39.912Z,100054.69
2022-07-31T13:53:08.900Z,100056.09
2022-07-31T13:55:37.416Z,100054.75
2022-07-31T13:58:05.954Z,100052.56
2022-07-31T14:00:35.896Z,100045.19
2022-07-31T14:03:04.408Z,100059.88
2022-07-31T14:05:40.219Z,100055.72
2022-07-31T14:08:29.771Z,100052.13
2022-07-31T14:10:57.596Z,100049.66
2022-07-31T14:13:26.404Z,100038.31
2022-07-31T14:15:56.355Z,100036.69
2022-07-31T14:18:25.241Z,100033.41
2022-07-31T14:20:53.693Z,100025.94
2022-07-31T14:23:35.211Z,100028.41
2022-07-31T14:26:05.293Z,100027.59
2022-07-31T14:28:33.905Z,100027.59
2022-07-31T14:31:04.181Z,100020.94
2022-07-31T14:33:32.816Z,100021.25
2022-07-31T14:36:03.847Z,100014.09
2022-07-31T14:38:32.308Z,100023.75
2022-07-31T14:41:00.829Z,100017.41
2022-07-31T14:43:29.297Z,100014.13
2022-07-31T14:45:57.868Z,100014.69
2022-07-31T14:48:28.422Z,100014.69
2022-07-31T14:50:56.907Z,100011.94
2022-07-31T14:53:25.401Z,100015.00
2022-07-31T14:55:53.801Z,100010.28
2022-07-31T14:58:32.270Z,100006.97
2022-07-31T15:01:03.546Z,100006.47
2022-07-31T15:03:33.647Z,100012.25
2022-07-31T15:06:51.180Z,100010.63
2022-07-31T15:08:50.703Z,100006.50
2022-07-31T15:11:19.238Z,100014.25
2022-07-31T15:13:47.876Z,100020.88
2022-07-31T15:16:16.359Z,100022.31
2022-07-31T15:18:49.979Z,100020.94
2022-07-31T15:21:20.072Z,100024.81
2022-07-31T15:23:48.492Z,100017.09
2022-07-31T15:26:17.121Z,100033.66
2022-07-31T15:28:46.181Z,100036.19
2022-07-31T15:31:14.657Z,100030.94
2022-07-31T15:33:46.397Z,100024.88
2022-07-31T15:36:15.419Z,100033.41
2022-07-31T15:38:43.966Z,100039.22
2022-07-31T15:41:12.510Z,100031.53
2022-07-31T15:43:47.675Z,100034.59
2022-07-31T15:46:16.144Z,100035.41
2022-07-31T15:48:46.125Z,100034.84
2022-07-31T15:51:14.788Z,100033.22
2022-07-31T15:53:43.378Z,100038.19
2022-07-31T15:56:11.856Z,100030.22
2022-07-31T15:58:40.450Z,100030.50
2022-07-31T16:01:09.111Z,100042.13
2022-07-31T16:03:50.722Z,100041.03
2022-07-31T16:06:27.980Z,100047.41
2022-07-31T16:09:00.659Z,100043.28
2022-07-31T16:12:03.946Z,100046.63
2022-07-31T16:14:17.814Z,100050.75
2022-07-31T16:16:46.336Z,100051.63
2022-07-31T16:19:15.256Z,100047.81
2022-07-31T16:22:27.879Z,100062.47
2022-07-31T16:24:57.728Z,100060.50
2022-07-31T16:27:26.280Z,100058.06
2022-07-31T16:29:59.896Z,100061.09
2022-07-31T16:32:32.632Z,100060.56
2022-07-31T16:35:01.836Z,100071.59
2022-07-31T16:37:52.377Z,100073.50
2022-07-31T16:40:29.919Z,100075.72
2022-07-31T16:43:46.760Z,100077.34
2022-07-31T16:45:50.820Z,100078.47
2022-07-31T16:48:19.554Z,100080.41
2022-07-31T16:50:53.315Z,100079.59
2022-07-31T16:54:11.727Z,100083.44
2022-07-31T16:56:14.045Z,100087.28
2022-07-31T16:58:43.980Z,100091.44
2022-07-31T17:01:59.144Z,100090.59
2022-07-31T17:04:04.357Z,100083.19
2022-07-31T17:06:36.821Z,100085.94
2022-07-31T17:09:17.171Z,100085.94
2022-07-31T17:11:50.087Z,100083.44
2022-07-31T17:14:20.292Z,100084.56
2022-07-31T17:16:50.904Z,100084.84
2022-07-31T17:19:41.541Z,100083.19
2022-07-31T17:22:11.382Z,100095.88
2022-07-31T17:24:40.648Z,100090.09
2022-07-31T17:27:10.913Z,100098.38
2022-07-31T17:29:39.970Z,100100.88
2022-07-31T17:32:11.185Z,100107.75
2022-07-31T17:34:40.582Z,100100.59
2022-07-31T17:37:09.704Z,100110.25
2022-07-31T17:39:38.537Z,100107.50
2022-07-31T17:42:09.322Z,100115.75
2022-07-31T17:44:40.067Z,100107.78
2022-07-31T17:47:09.312Z,100107.78
2022-07-31T17:49:38.292Z,100103.09
2022-07-31T17:52:07.402Z,100103.66
2022-07-31T17:54:35.846Z,100113.03
2022-07-31T17:57:05.192Z,100121.28
2022-07-31T17:59:34.360Z,100116.59
2022-07-31T18:02:04.949Z,100123.22
2022-07-31T18:04:37.052Z,100122.94
2022-07-31T18:07:07.340Z,100125.44
2022-07-31T18:09:36.746Z,100122.69
2022-07-31T18:12:06.246Z,100127.66
2022-07-31T18:14:34.930Z,100120.25
2022-07-31T18:17:04.896Z,100120.53
2022-07-31T18:19:33.362Z,100126.28
2022-07-31T18:22:02.011Z,100123.28
2022-07-31T18:24:30.801Z,100115.81
2022-07-31T18:26:59.479Z,100122.19
2022-07-31T18:29:28.343Z,100127.94
2022-07-31T18:31:56.891Z,100124.66
2022-07-31T18:34:26.795Z,100125.47
2022-07-31T18:36:55.381Z,100122.16
2022-07-31T18:39:24.473Z,100127.91
2022-07-31T18:41:52.974Z,100118.84
2022-07-31T18:44:22.262Z,100119.94
2022-07-31T18:46:51.169Z,100128.47
2022-07-31T18:51:01.468Z,100126.81
2022-07-31T18:52:10.905Z,100123.81
2022-07-31T18:54:40.132Z,100121.59
2022-07-31T18:57:09.504Z,100119.94
2022-07-31T18:59:38.003Z,100117.50
2022-07-31T19:02:08.588Z,100124.91
2022-07-31T19:04:40.901Z,100124.91
2022-07-31T19:07:10.753Z,100130.69
2022-07-31T19:09:39.442Z,100130.97
2022-07-31T19:12:08.986Z,100131.25
2022-07-31T19:14:37.705Z,100137.00
2022-07-31T19:17:08.398Z,100132.06
2022-07-31T19:19:40.228Z,100129.84
2022-07-31T19:22:25.193Z,100135.06
2022-07-31T19:24:54.112Z,100136.47
2022-07-31T19:27:22.584Z,100133.44
2022-07-31T19:30:13.919Z,100139.47
2022-07-31T19:32:42.707Z,100143.59
2022-07-31T19:35:11.759Z,100135.88
2022-07-31T19:37:41.684Z,100145.22
2022-07-31T19:40:11.611Z,100138.34
2022-07-31T19:42:40.753Z,100138.88
2022-07-31T19:45:09.975Z,100141.34
2022-07-31T19:47:38.449Z,100140.25
2022-07-31T19:50:07.742Z,100136.13
2022-07-31T19:52:36.235Z,100146.56
2022-07-31T19:55:07.787Z,100134.97
2022-07-31T19:57:36.661Z,100145.69
2022-07-31T20:00:06.804Z,100141.56
2022-07-31T20:02:35.376Z,100143.50
2022-07-31T20:05:03.786Z,100138.78
2022-07-31T20:07:33.127Z,100142.38
2022-07-31T20:10:02.368Z,100143.72
2022-07-31T20:12:33.322Z,100149.50
2022-07-31T20:15:01.818Z,100148.13
2022-07-31T20:17:32.378Z,100149.47
2022-07-31T20:20:04.705Z,100150.03
2022-07-31T20:22:44.513Z,100150.56
2022-07-31T20:25:20.019Z,100149.19
2022-07-31T20:27:51.115Z,100156.84
2022-07-31T20:30:22.230Z,100159.88
2022-07-31T20:32:51.726Z,100153.00
2022-07-31T20:35:29.312Z,100155.19
2022-07-31T20:38:15.719Z,100157.66
2022-07-31T20:40:53.305Z,100160.94
2022-07-31T20:43:27.204Z,100160.34
2022-07-31T20:45:58.009Z,100160.06
2022-07-31T20:48:31.610Z,100165.28
2022-07-31T20:51:00.340Z,100160.59
2022-07-31T20:53:30.177Z,100164.69
2022-07-31T20:55:59.668Z,100167.97
2022-07-31T20:58:29.577Z,100163.84
2022-07-31T21:00:58.103Z,100166.84
2022-07-31T21:03:26.779Z,100165.41
2022-07-31T21:05:55.286Z,100164.88
2022-07-31T21:08:23.798Z,100167.84
2022-07-31T21:10:52.540Z,100166.50
2022-07-31T21:13:20.955Z,100161.25
2022-07-31T21:15:51.574Z,100162.63
2022-07-31T21:18:22.060Z,100166.44
2022-07-31T21:20:53.785Z,100166.97
2022-07-31T21:23:23.862Z,100162.84
2022-07-31T21:25:52.745Z,100167.78
2022-07-31T21:28:21.789Z,100168.28
2022-07-31T21:30:53.825Z,100165.00
2022-07-31T21:33:23.731Z,100163.59
2022-07-31T21:35:52.537Z,100162.47
2022-07-31T21:38:21.639Z,100165.47
2022-07-31T21:40:50.915Z,100159.44
2022-07-31T21:43:22.574Z,100159.97
2022-07-31T21:45:57.618Z,100169.81
2022-07-31T21:48:31.497Z,100167.00
2022-07-31T21:51:00.871Z,100171.13
2022-07-31T21:53:29.383Z,100177.38
2022-07-31T21:56:02.184Z,100164.22
2022-07-31T21:58:30.699Z,100178.19
2022-07-31T22:01:00.650Z,100179.28
2022-07-31T22:03:29.273Z,100174.31
2022-07-31T22:06:15.308Z,100170.97
2022-07-31T22:08:44.092Z,100174.50
2022-07-31T22:11:12.567Z,100174.22
2022-07-31T22:13:41.132Z,100168.41
2022-07-31T22:16:11.231Z,100177.94
2022-07-31T22:18:40.180Z,100178.75
2022-07-31T22:21:09.972Z,100178.41
2022-07-31T22:23:38.982Z,100187.06
2022-07-31T22:26:07.959Z,100181.84
2022-07-31T22:28:37.120Z,100185.94
2022-07-31T22:31:05.956Z,100189.47
2022-07-31T22:33:36.029Z,100182.56
2022-07-31T22:36:07.233Z,100191.88
2022-07-31T22:38:38.130Z,100186.91
2022-07-31T22:41:06.938Z,100182.75
2022-07-31T22:44:13.792Z,100187.69
2022-07-31T22:46:24.316Z,100191.78
2022-07-31T22:48:55.589Z,100189.84
2022-07-31T22:51:24.421Z,100193.94
2022-07-31T22:53:52.967Z,100194.19
2022-07-31T22:56:21.411Z,100196.09
2022-07-31T22:58:49.859Z,100197.19
2022-07-31T23:01:18.275Z,100201.00
2022-07-31T23:03:46.881Z,100207.59
2022-07-31T23:06:31.762Z,100202.09
2022-07-31T23:09:02.687Z,100204.25
2022-07-31T23:11:31.241Z,100203.69
2022-07-31T23:14:00.128Z,100200.97
2022-07-31T23:16:28.684Z,100194.91
2022-07-31T23:18:57.781Z,100202.28
2022-07-31T23:21:27.714Z,100204.72
2022-07-31T23:23:56.340Z,100206.03
2022-07-31T23:26:26.633Z,100203.56
2022-07-31T23:28:56.620Z,100207.09
2022-07-31T23:31:25.575Z,100209.25
2022-07-31T23:33:54.669Z,100206.69
2022-07-31T23:36:23.183Z,100201.66
2022-07-31T23:38:53.092Z,100214.22
2022-07-31T23:41:35.369Z,100206.97
2022-07-31T23:44:05.120Z,100198.75
2022-07-31T23:46:33.602Z,100205.03
2022-07-31T23:49:02.878Z,100202.56
2022-07-31T23:51:31.390Z,100201.75
2022-07-31T23:54:01.238Z,100199.81
2022-07-31T23:56:29.653Z,100203.38
2022-07-31T23:58:58.073Z,100197.09
